createdAt,value
2018-12-19T00:00:40.265Z,15.90
2018-12-19T00:03:06.454Z,15.90
2018-12-19T00:05:32.681Z,15.90
2018-12-19T00:07:58.856Z,15.90
2018-12-19T00:10:25.069Z,15.90
2018-12-19T00:12:51.259Z,15.90
2018-12-19T00:15:18.207Z,15.90
2018-12-19T00:17:45.029Z,15.90
2018-12-19T00:20:12.039Z,15.90
2018-12-19T00:22:38.235Z,15.90
2018-12-19T00:25:05.159Z,15.90
2018-12-19T00:27:31.416Z,15.80
2018-12-19T00:29:58.001Z,15.80
2018-12-19T00:32:24.241Z,15.80
2018-12-19T00:34:50.412Z,15.80
2018-12-19T00:37:16.631Z,15.80
2018-12-19T00:39:43.584Z,15.80
2018-12-19T00:42:10.028Z,15.80
2018-12-19T00:44:36.239Z,15.80
2018-12-19T00:47:02.446Z,15.70
2018-12-19T00:49:28.665Z,15.70
2018-12-19T00:51:54.871Z,15.70
2018-12-19T00:54:21.059Z,15.70
2018-12-19T00:56:47.277Z,15.70
2018-12-19T00:59:13.616Z,15.70
2018-12-19T01:01:39.836Z,15.70
2018-12-19T01:04:06.039Z,15.70
2018-12-19T01:06:32.237Z,15.70
2018-12-19T01:08:58.432Z,15.70
2018-12-19T01:11:24.707Z,15.70
2018-12-19T01:13:50.899Z,15.70
2018-12-19T01:16:17.100Z,15.70
2018-12-19T01:18:43.349Z,15.70
2018-12-19T01:21:09.644Z,15.70
2018-12-19T01:23:35.873Z,15.70
2018-12-19T01:26:02.324Z,15.70
2018-12-19T01:28:28.531Z,15.70
2018-12-19T01:30:54.719Z,15.70
2018-12-19T01:33:20.986Z,15.70
2018-12-19T01:35:48.271Z,15.70
2018-12-19T01:38:14.484Z,15.70
2018-12-19T01:40:40.671Z,15.60
2018-12-19T01:43:06.880Z,15.60
2018-12-19T01:45:33.059Z,15.60
2018-12-19T01:48:00.030Z,15.60
2018-12-19T01:50:26.220Z,15.60
2018-12-19T01:52:52.395Z,15.60
2018-12-19T01:55:18.702Z,15.60
2018-12-19T01:57:44.888Z,15.60
2018-12-19T02:00:11.108Z,15.60
2018-12-19T02:02:37.344Z,15.60
2018-12-19T02:05:03.531Z,15.60
2018-12-19T02:07:29.730Z,15.70
2018-12-19T02:09:56.684Z,15.60
2018-12-19T02:12:22.862Z,15.60
2018-12-19T02:14:49.133Z,15.60
2018-12-19T02:17:15.868Z,15.60
2018-12-19T02:19:42.192Z,15.60
2018-12-19T02:22:08.400Z,15.60
2018-12-19T02:24:35.354Z,15.60
2018-12-19T02:27:01.560Z,15.60
2018-12-19T02:29:27.751Z,15.60
2018-12-19T02:31:53.959Z,15.60
2018-12-19T02:34:20.400Z,15.60
2018-12-19T02:36:46.613Z,15.60
2018-12-19T02:39:13.273Z,15.60
2018-12-19T02:41:39.464Z,15.60
2018-12-19T02:44:05.653Z,15.60
2018-12-19T02:46:31.859Z,15.60
2018-12-19T02:48:58.042Z,15.60
2018-12-19T02:51:24.260Z,15.60
2018-12-19T02:53:50.432Z,15.60
2018-12-19T02:56:16.626Z,15.60
2018-12-19T02:58:43.592Z,15.60
2018-12-19T03:01:10.548Z,15.60
2018-12-19T03:03:36.735Z,15.60
2018-12-19T03:06:02.959Z,15.60
2018-12-19T03:08:29.167Z,15.50
2018-12-19T03:10:55.365Z,15.40
2018-12-19T03:13:21.543Z,15.40
2018-12-19T03:15:47.748Z,15.30
2018-12-19T03:18:13.936Z,15.20
2018-12-19T03:20:40.139Z,15.10
2018-12-19T03:23:06.420Z,15.00
2018-12-19T03:25:32.675Z,14.90
2018-12-19T03:27:58.899Z,14.90
2018-12-19T03:30:25.145Z,14.90
2018-12-19T03:32:51.340Z,14.90
2018-12-19T03:35:17.746Z,14.90
2018-12-19T03:37:43.956Z,15.00
2018-12-19T03:40:10.151Z,15.00
2018-12-19T03:42:36.362Z,15.10
2018-12-19T03:45:02.562Z,15.10
2018-12-19T03:47:28.745Z,15.20
2018-12-19T03:49:54.953Z,15.20
2018-12-19T03:52:21.179Z,15.20
2018-12-19T03:54:47.361Z,15.20
2018-12-19T03:57:13.563Z,15.30
2018-12-19T03:59:41.200Z,15.30
2018-12-19T04:02:06.011Z,15.30
2018-12-19T04:04:32.191Z,15.30
2018-12-19T04:06:58.411Z,15.30
2018-12-19T04:09:24.612Z,15.30
2018-12-19T04:11:51.591Z,15.40
2018-12-19T04:14:17.812Z,15.40
2018-12-19T04:16:44.016Z,15.40
2018-12-19T04:19:10.212Z,15.40
2018-12-19T04:21:36.396Z,15.30
2018-12-19T04:24:02.595Z,15.40
2018-12-19T04:26:29.614Z,15.40
2018-12-19T04:28:55.814Z,15.30
2018-12-19T04:31:21.999Z,15.40
2018-12-19T04:33:48.207Z,15.40
2018-12-19T04:36:14.383Z,15.40
2018-12-19T04:38:40.617Z,15.40
2018-12-19T04:41:06.824Z,15.40
2018-12-19T04:43:33.829Z,15.30
2018-12-19T04:46:00.015Z,15.40
2018-12-19T04:48:26.251Z,15.40
2018-12-19T04:50:52.432Z,15.40
2018-12-19T04:53:18.630Z,15.40
2018-12-19T04:55:44.808Z,15.40
2018-12-19T04:58:10.999Z,15.40
2018-12-19T05:00:37.369Z,15.40
2018-12-19T05:03:03.579Z,15.40
2018-12-19T05:05:29.750Z,15.40
2018-12-19T05:07:55.948Z,15.40
2018-12-19T05:10:22.923Z,15.40
2018-12-19T05:12:49.139Z,15.30
2018-12-19T05:15:15.342Z,15.40
2018-12-19T05:17:41.558Z,15.40
2018-12-19T05:20:07.808Z,15.30
2018-12-19T05:22:34.010Z,15.30
2018-12-19T05:25:00.227Z,15.30
2018-12-19T05:27:26.417Z,15.30
2018-12-19T05:29:53.273Z,15.30
2018-12-19T05:32:18.831Z,15.30
2018-12-19T05:34:45.791Z,15.30
2018-12-19T05:37:11.994Z,15.30
2018-12-19T05:39:38.191Z,15.30
2018-12-19T05:42:04.381Z,15.30
2018-12-19T05:44:30.579Z,15.30
2018-12-19T05:46:56.768Z,15.30
2018-12-19T05:49:22.993Z,15.20
2018-12-19T05:51:49.207Z,15.20
2018-12-19T05:54:15.446Z,15.10
2018-12-19T05:56:41.653Z,15.20
2018-12-19T05:59:07.881Z,15.20
2018-12-19T06:01:34.075Z,15.20
2018-12-19T06:04:01.012Z,15.20
2018-12-19T06:06:27.220Z,15.20
2018-12-19T06:08:53.601Z,15.20
2018-12-19T06:11:19.807Z,15.20
2018-12-19T06:13:46.020Z,15.20
2018-12-19T06:16:12.223Z,15.20
2018-12-19T06:18:38.424Z,15.20
2018-12-19T06:21:04.644Z,15.20
2018-12-19T06:23:30.832Z,15.20
2018-12-19T06:25:57.035Z,15.30
2018-12-19T06:28:23.289Z,15.20
2018-12-19T06:30:49.459Z,15.20
2018-12-19T06:33:15.647Z,15.20
2018-12-19T06:35:43.391Z,15.10
2018-12-19T06:38:09.581Z,15.10
2018-12-19T06:40:35.798Z,15.20
2018-12-19T06:43:02.019Z,15.20
2018-12-19T06:45:28.250Z,15.10
2018-12-19T06:47:54.451Z,15.10
2018-12-19T06:50:20.648Z,15.10
2018-12-19T06:52:46.938Z,15.10
2018-12-19T06:55:13.174Z,15.20
2018-12-19T06:57:39.355Z,15.20
2018-12-19T07:00:05.553Z,15.20
2018-12-19T07:02:31.799Z,15.20
2018-12-19T07:04:57.985Z,15.20
2018-12-19T07:07:24.326Z,15.20
2018-12-19T07:09:50.502Z,15.20
2018-12-19T07:12:16.751Z,15.20
2018-12-19T07:14:42.928Z,15.20
2018-12-19T07:17:09.223Z,15.20
2018-12-19T07:19:35.438Z,15.20
2018-12-19T07:22:01.666Z,15.20
2018-12-19T07:24:27.906Z,15.20
2018-12-19T07:26:54.123Z,15.20
2018-12-19T07:29:20.311Z,15.20
2018-12-19T07:31:47.352Z,15.20
2018-12-19T07:34:13.603Z,15.20
2018-12-19T07:36:39.793Z,15.20
2018-12-19T07:39:05.984Z,15.20
2018-12-19T07:41:32.199Z,15.20
2018-12-19T07:43:59.175Z,15.20
2018-12-19T07:46:25.380Z,15.10
2018-12-19T07:48:51.600Z,15.20
2018-12-19T07:51:17.798Z,15.20
2018-12-19T07:53:44.034Z,15.20
2018-12-19T07:56:10.303Z,15.20
2018-12-19T07:58:36.512Z,15.10
2018-12-19T08:01:02.738Z,15.10
2018-12-19T08:03:28.938Z,15.10
2018-12-19T08:05:55.118Z,15.10
2018-12-19T08:08:21.322Z,15.10
2018-12-19T08:10:52.120Z,15.10
2018-12-19T08:13:14.545Z,15.00
2018-12-19T08:15:40.752Z,15.10
2018-12-19T08:18:07.933Z,15.10
2018-12-19T08:20:34.168Z,15.10
2018-12-19T08:23:00.377Z,15.10
2018-12-19T08:25:26.595Z,15.10
2018-12-19T08:27:52.809Z,15.10
2018-12-19T08:30:18.986Z,15.10
2018-12-19T08:32:45.201Z,15.10
2018-12-19T08:35:11.807Z,15.10
2018-12-19T08:37:38.016Z,15.10
2018-12-19T08:40:04.212Z,15.10
2018-12-19T08:42:30.410Z,15.10
2018-12-19T08:44:56.621Z,15.10
2018-12-19T08:47:22.800Z,15.10
2018-12-19T08:49:49.018Z,15.10
2018-12-19T08:52:15.198Z,15.10
2018-12-19T08:54:41.424Z,15.10
2018-12-19T08:57:07.609Z,15.10
2018-12-19T08:59:33.875Z,15.10
2018-12-19T09:02:00.055Z,15.10
2018-12-19T09:04:26.263Z,15.10
2018-12-19T09:06:52.520Z,15.10
2018-12-19T09:09:18.722Z,15.10
2018-12-19T09:11:44.924Z,15.10
2018-12-19T09:14:11.243Z,15.10
2018-12-19T09:16:37.428Z,15.10
2018-12-19T09:19:04.109Z,15.10
2018-12-19T09:21:30.328Z,15.10
2018-12-19T09:23:56.520Z,15.10
2018-12-19T09:26:24.264Z,15.00
2018-12-19T09:28:50.462Z,15.00
2018-12-19T09:31:16.658Z,15.00
2018-12-19T09:33:42.842Z,15.00
2018-12-19T09:36:09.067Z,15.00
2018-12-19T09:38:35.263Z,15.00
2018-12-19T09:41:01.459Z,15.00
2018-12-19T09:43:27.654Z,15.00
2018-12-19T09:45:53.861Z,15.00
2018-12-19T09:48:20.076Z,15.00
2018-12-19T09:50:46.515Z,15.00
2018-12-19T09:53:12.727Z,15.00
2018-12-19T09:55:39.738Z,14.90
2018-12-19T09:58:05.920Z,14.80
2018-12-19T10:00:32.144Z,14.90
2018-12-19T10:02:58.412Z,14.80
2018-12-19T10:05:24.616Z,14.80
2018-12-19T10:07:50.867Z,14.80
2018-12-19T10:10:17.031Z,14.80
2018-12-19T10:12:44.024Z,14.70
2018-12-19T10:15:10.208Z,14.70
2018-12-19T10:17:40.870Z,14.80
2018-12-19T10:20:02.659Z,14.70
2018-12-19T10:22:28.862Z,14.70
2018-12-19T10:24:55.081Z,14.70
2018-12-19T10:27:21.266Z,14.70
2018-12-19T10:29:47.453Z,14.80
2018-12-19T10:32:13.663Z,14.80
2018-12-19T10:34:39.844Z,14.70
2018-12-19T10:37:07.516Z,14.80
2018-12-19T10:39:32.330Z,14.80
2018-12-19T10:41:58.563Z,14.80
2018-12-19T10:44:24.757Z,14.80
2018-12-19T10:46:50.953Z,14.80
2018-12-19T10:49:17.139Z,14.80
2018-12-19T10:51:43.339Z,14.80
2018-12-19T10:54:10.500Z,14.80
2018-12-19T10:56:36.679Z,14.80
2018-12-19T10:59:02.895Z,14.80
2018-12-19T11:01:29.119Z,14.80
2018-12-19T11:03:55.318Z,14.80
2018-12-19T11:06:21.518Z,14.90
2018-12-19T11:08:48.498Z,14.90
2018-12-19T11:11:14.699Z,14.90
2018-12-19T11:13:40.884Z,14.90
2018-12-19T11:16:07.156Z,15.00
2018-12-19T11:18:34.635Z,15.00
2018-12-19T11:21:01.045Z,15.00
2018-12-19T11:23:27.252Z,15.00
2018-12-19T11:25:53.436Z,15.00
2018-12-19T11:28:19.721Z,15.00
2018-12-19T11:30:45.899Z,15.10
2018-12-19T11:33:12.099Z,15.10
2018-12-19T11:35:38.283Z,15.10
2018-12-19T11:38:04.509Z,15.10
2018-12-19T11:40:30.870Z,15.10
2018-12-19T11:42:57.115Z,15.10
2018-12-19T11:45:23.305Z,15.10
2018-12-19T11:47:49.493Z,15.10
2018-12-19T11:50:15.703Z,15.10
2018-12-19T11:52:41.981Z,15.10
2018-12-19T11:55:08.172Z,15.10
2018-12-19T11:57:34.511Z,15.10
2018-12-19T12:00:00.634Z,15.10
2018-12-19T12:02:26.832Z,15.10
2018-12-19T12:04:53.039Z,15.10
2018-12-19T12:07:19.223Z,15.10
2018-12-19T12:09:45.443Z,15.10
2018-12-19T12:12:11.650Z,15.10
2018-12-19T12:14:37.861Z,15.10
2018-12-19T12:17:04.042Z,15.00
2018-12-19T12:19:30.237Z,15.10
2018-12-19T12:21:56.546Z,15.10
2018-12-19T12:24:22.742Z,15.10
2018-12-19T12:26:49.757Z,15.10
2018-12-19T12:29:15.994Z,15.00
2018-12-19T12:31:42.458Z,15.00
2018-12-19T12:34:08.655Z,15.00
2018-12-19T12:36:34.943Z,15.00
2018-12-19T12:39:01.139Z,15.00
2018-12-19T12:41:28.910Z,15.00
2018-12-19T12:43:53.601Z,15.00
2018-12-19T12:46:19.808Z,15.00
2018-12-19T12:48:45.968Z,15.00
2018-12-19T12:51:12.938Z,15.00
2018-12-19T12:53:39.152Z,15.00
2018-12-19T12:56:05.364Z,15.00
2018-12-19T12:58:31.561Z,15.10
2018-12-19T13:00:58.391Z,15.10
2018-12-19T13:03:24.626Z,15.10
2018-12-19T13:05:50.905Z,15.10
2018-12-19T13:08:17.102Z,15.10
2018-12-19T13:10:43.279Z,15.10
2018-12-19T13:13:09.555Z,15.10
2018-12-19T13:15:35.766Z,15.10
2018-12-19T13:18:01.952Z,15.10
2018-12-19T13:20:28.143Z,15.10
2018-12-19T13:22:54.307Z,15.10
2018-12-19T13:25:20.524Z,15.10
2018-12-19T13:27:46.707Z,15.10
2018-12-19T13:30:12.903Z,15.10
2018-12-19T13:32:39.099Z,15.10
2018-12-19T13:35:06.074Z,15.10
2018-12-19T13:37:33.306Z,15.10
2018-12-19T13:39:59.740Z,15.10
2018-12-19T13:42:25.944Z,15.10
2018-12-19T13:44:52.141Z,15.10
2018-12-19T13:47:18.379Z,15.10
2018-12-19T13:49:44.574Z,15.10
2018-12-19T13:52:10.762Z,15.10
2018-12-19T13:54:37.732Z,15.10
2018-12-19T13:57:03.939Z,15.10
2018-12-19T13:59:30.139Z,15.10
2018-12-19T14:01:56.337Z,15.10
2018-12-19T14:04:22.632Z,15.10
2018-12-19T14:06:48.816Z,15.10
2018-12-19T14:09:15.030Z,15.10
2018-12-19T14:11:41.239Z,15.10
2018-12-19T14:14:07.419Z,15.10
2018-12-19T14:16:33.603Z,15.10
2018-12-19T14:18:59.817Z,15.10
2018-12-19T14:21:26.086Z,15.10
2018-12-19T14:23:52.314Z,15.10
2018-12-19T14:26:18.514Z,15.10
2018-12-19T14:28:44.714Z,15.10
2018-12-19T14:31:10.939Z,15.10
2018-12-19T14:33:37.127Z,15.10
2018-12-19T14:36:03.308Z,15.10
2018-12-19T14:38:29.515Z,15.10
2018-12-19T14:40:56.531Z,15.10
2018-12-19T14:43:22.727Z,15.10
2018-12-19T14:45:49.128Z,15.10
2018-12-19T14:48:15.331Z,15.10
2018-12-19T14:50:41.507Z,15.10
2018-12-19T14:53:07.719Z,15.10
2018-12-19T14:55:33.907Z,15.10
2018-12-19T14:58:00.147Z,15.10
2018-12-19T15:00:27.324Z,15.10
2018-12-19T15:02:53.546Z,15.10
2018-12-19T15:05:19.741Z,15.10
2018-12-19T15:07:45.952Z,15.10
2018-12-19T15:10:12.433Z,15.10
2018-12-19T15:12:38.646Z,15.10
2018-12-19T15:15:04.862Z,15.10
2018-12-19T15:17:31.823Z,15.10
2018-12-19T15:19:58.771Z,15.10
2018-12-19T15:22:24.953Z,15.10
2018-12-19T15:24:51.160Z,15.10
2018-12-19T15:27:17.339Z,15.10
2018-12-19T15:29:43.745Z,15.10
2018-12-19T15:32:10.764Z,15.10
2018-12-19T15:34:37.187Z,15.10
2018-12-19T15:37:03.382Z,15.10
2018-12-19T15:39:29.590Z,15.10
2018-12-19T15:41:55.814Z,15.10
2018-12-19T15:44:22.047Z,15.10
2018-12-19T15:46:49.028Z,15.10
2018-12-19T15:49:16.001Z,15.10
2018-12-19T15:51:42.407Z,15.10
2018-12-19T15:54:09.023Z,15.10
2018-12-19T15:56:35.217Z,15.10
2018-12-19T15:59:01.398Z,15.10
2018-12-19T16:01:28.375Z,15.10
2018-12-19T16:03:55.298Z,15.10
2018-12-19T16:06:21.569Z,15.10
2018-12-19T16:08:47.771Z,15.10
2018-12-19T16:11:13.978Z,15.10
2018-12-19T16:13:40.166Z,15.10
2018-12-19T16:16:06.364Z,15.10
2018-12-19T16:18:32.762Z,15.10
2018-12-19T16:20:58.972Z,15.10
2018-12-19T16:23:25.182Z,15.10
2018-12-19T16:25:51.407Z,15.10
2018-12-19T16:28:17.608Z,15.10
2018-12-19T16:30:43.847Z,15.10
2018-12-19T16:33:10.114Z,15.10
2018-12-19T16:35:36.340Z,15.10
2018-12-19T16:38:02.544Z,15.10
2018-12-19T16:40:28.778Z,15.10
2018-12-19T16:42:54.980Z,15.10
2018-12-19T16:45:21.227Z,15.10
2018-12-19T16:47:47.423Z,15.10
2018-12-19T16:50:13.620Z,15.10
2018-12-19T16:52:40.603Z,15.10
2018-12-19T16:55:06.814Z,15.10
2018-12-19T16:57:33.024Z,15.10
2018-12-19T16:59:59.460Z,15.10
2018-12-19T17:02:25.671Z,15.10
2018-12-19T17:04:51.881Z,15.00
2018-12-19T17:07:18.076Z,15.00
2018-12-19T17:09:44.394Z,15.00
2018-12-19T17:12:10.612Z,15.00
2018-12-19T17:14:36.809Z,15.00
2018-12-19T17:17:03.003Z,15.00
2018-12-19T17:19:29.193Z,15.00
2018-12-19T17:21:55.394Z,15.00
2018-12-19T17:24:22.340Z,15.00
2018-12-19T17:26:48.586Z,15.00
2018-12-19T17:29:14.822Z,15.00
2018-12-19T17:31:41.698Z,15.00
2018-12-19T17:34:07.914Z,15.00
2018-12-19T17:36:34.134Z,15.00
2018-12-19T17:39:00.549Z,15.00
2018-12-19T17:41:26.747Z,15.00
2018-12-19T17:43:52.942Z,15.00
2018-12-19T17:46:19.129Z,15.00
2018-12-19T17:48:45.322Z,15.00
2018-12-19T17:51:11.501Z,15.00
2018-12-19T17:53:37.706Z,15.00
2018-12-19T17:56:03.892Z,15.00
2018-12-19T17:58:30.104Z,15.00
2018-12-19T18:00:56.405Z,15.00
2018-12-19T18:03:22.629Z,15.00
2018-12-19T18:05:48.843Z,15.00
2018-12-19T18:08:15.065Z,15.00
2018-12-19T18:10:41.642Z,15.00
2018-12-19T18:13:08.351Z,15.00
2018-12-19T18:15:34.139Z,15.10
2018-12-19T18:18:00.385Z,15.00
2018-12-19T18:20:26.609Z,15.00
2018-12-19T18:22:52.795Z,15.00
2018-12-19T18:25:18.994Z,15.00
2018-12-19T18:27:45.180Z,15.00
2018-12-19T18:30:11.371Z,15.00
2018-12-19T18:32:37.554Z,15.00
2018-12-19T18:35:03.768Z,15.00
2018-12-19T18:37:29.969Z,15.00
2018-12-19T18:39:56.195Z,15.00
2018-12-19T18:42:22.424Z,15.00
2018-12-19T18:44:48.662Z,15.00
2018-12-19T18:47:15.635Z,15.00
2018-12-19T18:49:42.800Z,15.00
2018-12-19T18:52:08.979Z,15.00
2018-12-19T18:54:35.667Z,15.10
2018-12-19T18:57:01.851Z,15.10
2018-12-19T18:59:28.125Z,15.10
2018-12-19T19:01:54.324Z,15.10
2018-12-19T19:04:20.577Z,15.00
2018-12-19T19:06:46.789Z,15.10
2018-12-19T19:09:13.003Z,15.10
2018-12-19T19:11:39.211Z,15.10
2018-12-19T19:14:05.391Z,15.10
2018-12-19T19:16:31.592Z,15.00
2018-12-19T19:18:58.561Z,15.10
2018-12-19T19:21:24.749Z,15.00
2018-12-19T19:23:50.959Z,15.00
2018-12-19T19:26:17.164Z,15.10
2018-12-19T19:28:43.360Z,15.00
2018-12-19T19:31:10.307Z,15.00
2018-12-19T19:33:36.496Z,15.00
2018-12-19T19:36:02.719Z,15.00
2018-12-19T19:38:28.924Z,15.00
2018-12-19T19:40:55.122Z,15.00
2018-12-19T19:43:26.481Z,15.00
2018-12-19T19:45:48.308Z,15.00
2018-12-19T19:48:14.504Z,15.00
2018-12-19T19:50:40.711Z,15.00
2018-12-19T19:53:06.887Z,15.00
2018-12-19T19:55:33.087Z,15.00
2018-12-19T19:57:59.275Z,15.00
2018-12-19T20:00:25.458Z,15.00
2018-12-19T20:02:51.649Z,15.00
2018-12-19T20:05:17.839Z,15.10
2018-12-19T20:07:44.065Z,15.00
2018-12-19T20:10:10.251Z,15.00
2018-12-19T20:12:37.233Z,15.10
2018-12-19T20:15:03.424Z,15.00
2018-12-19T20:17:29.661Z,15.00
2018-12-19T20:19:55.882Z,15.00
2018-12-19T20:22:22.716Z,15.00
2018-12-19T20:24:48.994Z,15.00
2018-12-19T20:27:15.223Z,15.00
2018-12-19T20:29:41.421Z,15.00
2018-12-19T20:32:07.622Z,15.00
2018-12-19T20:34:33.848Z,15.00
2018-12-19T20:37:00.062Z,15.00
2018-12-19T20:39:26.254Z,15.00
2018-12-19T20:41:52.514Z,15.00
2018-12-19T20:44:18.686Z,15.00
2018-12-19T20:46:45.648Z,15.00
2018-12-19T20:49:11.845Z,15.00
2018-12-19T20:51:38.020Z,15.00
2018-12-19T20:54:04.230Z,15.00
2018-12-19T20:56:30.449Z,15.00
2018-12-19T20:58:57.411Z,15.00
2018-12-19T21:01:23.574Z,15.00
2018-12-19T21:03:49.804Z,15.00
2018-12-19T21:06:16.782Z,15.00
2018-12-19T21:08:43.787Z,15.00
2018-12-19T21:11:09.956Z,15.00
2018-12-19T21:13:36.205Z,15.00
2018-12-19T21:16:02.411Z,15.00
2018-12-19T21:18:28.643Z,15.00
2018-12-19T21:20:54.844Z,15.00
2018-12-19T21:23:21.039Z,15.00
2018-12-19T21:25:47.240Z,15.00
2018-12-19T21:28:13.572Z,15.00
2018-12-19T21:30:40.396Z,15.00
2018-12-19T21:33:06.642Z,15.00
2018-12-19T21:35:32.863Z,15.00
2018-12-19T21:37:59.815Z,15.00
2018-12-19T21:40:26.114Z,15.00
2018-12-19T21:42:52.322Z,15.00
2018-12-19T21:45:18.536Z,15.00
2018-12-19T21:47:45.476Z,15.00
2018-12-19T21:50:12.523Z,15.00
2018-12-19T21:52:38.881Z,15.00
2018-12-19T21:55:05.140Z,15.00
2018-12-19T21:57:31.349Z,15.00
2018-12-19T21:59:57.554Z,15.00
2018-12-19T22:02:23.778Z,15.00
2018-12-19T22:04:49.986Z,15.00
2018-12-19T22:07:16.219Z,15.00
2018-12-19T22:09:42.454Z,15.00
2018-12-19T22:12:08.684Z,15.00
2018-12-19T22:14:34.899Z,15.00
2018-12-19T22:17:01.150Z,15.00
2018-12-19T22:19:27.355Z,15.00
2018-12-19T22:21:53.552Z,15.00
2018-12-19T22:24:20.549Z,15.00
2018-12-19T22:26:46.955Z,15.00
2018-12-19T22:29:13.173Z,15.00
2018-12-19T22:31:39.385Z,15.00
2018-12-19T22:34:06.118Z,15.00
2018-12-19T22:36:33.091Z,15.00
2018-12-19T22:38:59.346Z,15.00
2018-12-19T22:41:25.564Z,15.00
2018-12-19T22:43:51.988Z,15.00
2018-12-19T22:46:18.263Z,15.00
2018-12-19T22:48:44.496Z,15.00
2018-12-19T22:51:10.691Z,15.00
2018-12-19T22:53:36.946Z,15.00
2018-12-19T22:56:03.125Z,15.00
2018-12-19T22:58:29.347Z,15.00
2018-12-19T23:00:55.564Z,15.00
2018-12-19T23:03:21.805Z,14.90
2018-12-19T23:05:48.022Z,15.00
2018-12-19T23:08:14.223Z,15.00
2018-12-19T23:10:40.449Z,15.00
2018-12-19T23:13:06.681Z,15.00
2018-12-19T23:15:32.923Z,15.00
2018-12-19T23:17:59.168Z,15.00
2018-12-19T23:20:25.469Z,15.00
2018-12-19T23:22:51.753Z,15.00
2018-12-19T23:25:17.905Z,15.00
2018-12-19T23:27:44.107Z,15.00
2018-12-19T23:30:10.358Z,15.00
2018-12-19T23:32:36.869Z,15.00
2018-12-19T23:35:02.861Z,15.00
2018-12-19T23:37:29.034Z,15.00
2018-12-19T23:39:55.294Z,15.00
2018-12-19T23:42:21.604Z,14.90
2018-12-19T23:44:47.900Z,15.00
2018-12-19T23:47:14.336Z,15.00
2018-12-19T23:49:40.563Z,15.00
2018-12-19T23:52:06.832Z,15.00
2018-12-19T23:54:33.230Z,15.00
2018-12-19T23:56:59.437Z,15.00
2018-12-19T23:59:25.685Z,14.90
